sensor_id;sensor_type;location;lat;lon;timestamp;pressure;altitude;pressure_sealevel;temperature;humidity
18022;BME280;9136;48.822;7.966;2022-11-15T00:00:48;99972.34;;;8.10;100.00
18022;BME280;9136;48.822;7.966;2022-11-15T00:03:35;99974.59;;;8.23;100.00
18022;BME280;9136;48.822;7.966;2022-11-15T00:06:21;99951.34;;;8.13;100.00
18022;BME280;9136;48.822;7.966;2022-11-15T00:09:07;99976.13;;;8.32;100.00
18022;BME280;9136;48.822;7.966;2022-11-15T00:11:58;99965.81;;;8.26;100.00
18022;BME280;9136;48.822;7.966;2022-11-15T00:14:44;99975.19;;;8.35;100.00
18022;BME280;9136;48.822;7.966;2022-11-15T00:17:30;99967.34;;;8.35;100.00
18022;BME280;9136;48.822;7.966;2022-11-15T00:20:17;99950.78;;;8.32;100.00
18022;BME280;9136;48.822;7.966;2022-11-15T00:23:03;99950.44;;;8.46;100.00
18022;BME280;9136;48.822;7.966;2022-11-15T00:25:55;99933.31;;;8.35;100.00
18022;BME280;9136;48.822;7.966;2022-11-15T00:28:44;99948.63;;;8.48;100.00
18022;BME280;9136;48.822;7.966;2022-11-15T00:31:30;99946.91;;;8.47;100.00
18022;BME280;9136;48.822;7.966;2022-11-15T00:34:18;99941.78;;;8.44;100.00
18022;BME280;9136;48.822;7.966;2022-11-15T00:37:04;99944.53;;;8.40;100.00
18022;BME280;9136;48.822;7.966;2022-11-15T00:39:51;99929.91;;;8.31;100.00
18022;BME280;9136;48.822;7.966;2022-11-15T00:42:38;99944.53;;;8.40;100.00
18022;BME280;9136;48.822;7.966;2022-11-15T00:45:25;99925.47;;;8.33;100.00
18022;BME280;9136;48.822;7.966;2022-11-15T00:48:13;99926.00;;;8.46;100.00
18022;BME280;9136;48.822;7.966;2022-11-15T00:50:59;99931.13;;;8.50;100.00
18022;BME280;9136;48.822;7.966;2022-11-15T00:53:45;99923.00;;;8.59;100.00
18022;BME280;9136;48.822;7.966;2022-11-15T00:56:31;99912.16;;;8.42;100.00
18022;BME280;9136;48.822;7.966;2022-11-15T00:59:17;99915.50;;;8.47;100.00
18022;BME280;9136;48.822;7.966;2022-11-15T01:02:04;99946.34;;;8.67;100.00
18022;BME280;9136;48.822;7.966;2022-11-15T01:04:50;99933.94;;;8.74;100.00
18022;BME280;9136;48.822;7.966;2022-11-15T01:07:37;99899.06;;;8.72;100.00
18022;BME280;9136;48.822;7.966;2022-11-15T01:10:24;99918.84;;;8.82;100.00
18022;BME280;9136;48.822;7.966;2022-11-15T01:13:10;99891.91;;;8.78;100.00
18022;BME280;9136;48.822;7.966;2022-11-15T01:15:56;99902.47;;;9.03;100.00
18022;BME280;9136;48.822;7.966;2022-11-15T01:18:44;99908.09;;;9.19;100.00
18022;BME280;9136;48.822;7.966;2022-11-15T01:21:30;99897.44;;;9.24;100.00
18022;BME280;9136;48.822;7.966;2022-11-15T01:24:16;99907.31;;;9.42;100.00
18022;BME280;9136;48.822;7.966;2022-11-15T01:26:44;99890.06;;;9.35;100.00
18022;BME280;9136;48.822;7.966;2022-11-15T01:29:12;99888.28;;;9.37;100.00
18022;BME280;9136;48.822;7.966;2022-11-15T01:31:39;99893.25;;;9.44;100.00
18022;BME280;9136;48.822;7.966;2022-11-15T01:34:10;99890.84;;;9.38;100.00
18022;BME280;9136;48.822;7.966;2022-11-15T01:36:57;99895.44;;;9.32;100.00
18022;BME280;9136;48.822;7.966;2022-11-15T01:39:43;99869.91;;;9.10;100.00
18022;BME280;9136;48.822;7.966;2022-11-15T01:42:29;99869.97;;;9.09;100.00
18022;BME280;9136;48.822;7.966;2022-11-15T01:45:16;99876.94;;;9.10;100.00
18022;BME280;9136;48.822;7.966;2022-11-15T01:48:03;99890.66;;;9.18;100.00
18022;BME280;9136;48.822;7.966;2022-11-15T01:50:50;99878.75;;;9.08;100.00
18022;BME280;9136;48.822;7.966;2022-11-15T01:53:38;99886.50;;;9.11;100.00
18022;BME280;9136;48.822;7.966;2022-11-15T01:56:30;99866.56;;;9.05;100.00
18022;BME280;9136;48.822;7.966;2022-11-15T01:59:19;99888.16;;;9.13;100.00
18022;BME280;9136;48.822;7.966;2022-11-15T02:02:06;99880.97;;;9.20;100.00
18022;BME280;9136;48.822;7.966;2022-11-15T02:04:52;99858.66;;;9.07;100.00
18022;BME280;9136;48.822;7.966;2022-11-15T02:07:40;99868.81;;;9.17;100.00
18022;BME280;9136;48.822;7.966;2022-11-15T02:10:28;99874.69;;;9.24;100.00
18022;BME280;9136;48.822;7.966;2022-11-15T02:13:15;99862.56;;;9.22;100.00
18022;BME280;9136;48.822;7.966;2022-11-15T02:16:09;99872.06;;;9.24;100.00
18022;BME280;9136;48.822;7.966;2022-11-15T02:19:02;99840.31;;;9.08;100.00
18022;BME280;9136;48.822;7.966;2022-11-15T02:22:05;99849.94;;;9.33;100.00
18022;BME280;9136;48.822;7.966;2022-11-15T02:25:05;99846.41;;;9.34;100.00
18022;BME280;9136;48.822;7.966;2022-11-15T02:28:20;99840.44;;;9.30;100.00
18022;BME280;9136;48.822;7.966;2022-11-15T02:31:17;99839.69;;;9.27;100.00
18022;BME280;9136;48.822;7.966;2022-11-15T02:34:11;99856.28;;;9.27;100.00
18022;BME280;9136;48.822;7.966;2022-11-15T02:37:07;99844.38;;;9.17;100.00
18022;BME280;9136;48.822;7.966;2022-11-15T02:40:02;99825.50;;;9.06;100.00
18022;BME280;9136;48.822;7.966;2022-11-15T02:42:55;99837.41;;;9.16;100.00
18022;BME280;9136;48.822;7.966;2022-11-15T02:46:04;99825.44;;;9.09;100.00
18022;BME280;9136;48.822;7.966;2022-11-15T02:48:53;99802.84;;;9.05;100.00
18022;BME280;9136;48.822;7.966;2022-11-15T02:51:41;99816.59;;;9.11;100.00
18022;BME280;9136;48.822;7.966;2022-11-15T02:54:30;99809.03;;;9.02;100.00
18022;BME280;9136;48.822;7.966;2022-11-15T02:57:18;99819.28;;;9.10;100.00
18022;BME280;9136;48.822;7.966;2022-11-15T03:00:09;99791.72;;;8.98;100.00
18022;BME280;9136;48.822;7.966;2022-11-15T03:03:14;99820.19;;;9.09;100.00
18022;BME280;9136;48.822;7.966;2022-11-15T03:06:12;99814.47;;;8.96;100.00
18022;BME280;9136;48.822;7.966;2022-11-15T03:09:05;99792.22;;;8.83;100.00
18022;BME280;9136;48.822;7.966;2022-11-15T03:11:57;99784.66;;;8.74;100.00
18022;BME280;9136;48.822;7.966;2022-11-15T03:14:53;99790.31;;;8.88;100.00
18022;BME280;9136;48.822;7.966;2022-11-15T03:17:46;99816.91;;;9.02;100.00
18022;BME280;9136;48.822;7.966;2022-11-15T03:20:35;99791.72;;;8.98;100.00
18022;BME280;9136;48.822;7.966;2022-11-15T03:23:24;99787.38;;;8.97;100.00
18022;BME280;9136;48.822;7.966;2022-11-15T03:26:14;99795.22;;;8.97;100.00
18022;BME280;9136;48.822;7.966;2022-11-15T03:29:06;99835.63;;;9.18;100.00
18022;BME280;9136;48.822;7.966;2022-11-15T03:31:58;99822.59;;;9.15;100.00
18022;BME280;9136;48.822;7.966;2022-11-15T03:34:50;99800.94;;;9.10;100.00
18022;BME280;9136;48.822;7.966;2022-11-15T03:37:44;99805.03;;;9.18;100.00
18022;BME280;9136;48.822;7.966;2022-11-15T03:40:38;99823.97;;;9.27;100.00
18022;BME280;9136;48.822;7.966;2022-11-15T03:43:32;99814.47;;;9.23;100.00
18022;BME280;9136;48.822;7.966;2022-11-15T03:46:24;99799.00;;;9.15;100.00
18022;BME280;9136;48.822;7.966;2022-11-15T03:49:15;99813.88;;;9.14;100.00
18022;BME280;9136;48.822;7.966;2022-11-15T03:52:04;99801.13;;;9.04;100.00
18022;BME280;9136;48.822;7.966;2022-11-15T03:54:52;99791.75;;;8.97;100.00
18022;BME280;9136;48.822;7.966;2022-11-15T03:57:41;99779.63;;;8.94;100.00
18022;BME280;9136;48.822;7.966;2022-11-15T04:00:28;99779.72;;;8.91;100.00
18022;BME280;9136;48.822;7.966;2022-11-15T04:03:14;99814.19;;;9.05;100.00
18022;BME280;9136;48.822;7.966;2022-11-15T04:06:01;99798.81;;;8.95;100.00
18022;BME280;9136;48.822;7.966;2022-11-15T04:08:47;99798.97;;;8.90;100.00
18022;BME280;9136;48.822;7.966;2022-11-15T04:11:33;99807.22;;;9.04;100.00
18022;BME280;9136;48.822;7.966;2022-11-15T04:14:20;99779.94;;;8.85;100.00
18022;BME280;9136;48.822;7.966;2022-11-15T04:17:06;99790.88;;;8.98;100.00
18022;BME280;9136;48.822;7.966;2022-11-15T04:19:52;99798.56;;;9.02;100.00
18022;BME280;9136;48.822;7.966;2022-11-15T04:22:58;99785.59;;;8.99;100.00
18022;BME280;9136;48.822;7.966;2022-11-15T04:26:04;99759.69;;;8.90;100.00
18022;BME280;9136;48.822;7.966;2022-11-15T04:28:51;99800.78;;;9.14;100.00
18022;BME280;9136;48.822;7.966;2022-11-15T04:31:57;99791.31;;;9.10;100.00
18022;BME280;9136;48.822;7.966;2022-11-15T04:34:43;99790.34;;;9.13;100.00
18022;BME280;9136;48.822;7.966;2022-11-15T04:37:29;99805.03;;;9.43;100.00
18022;BME280;9136;48.822;7.966;2022-11-15T04:40:15;99774.94;;;9.54;100.00
18022;BME280;9136;48.822;7.966;2022-11-15T04:43:01;99782.88;;;9.77;100.00
18022;BME280;9136;48.822;7.966;2022-11-15T04:45:47;99791.34;;;9.84;100.00
18022;BME280;9136;48.822;7.966;2022-11-15T04:48:35;99782.34;;;9.91;100.00
18022;BME280;9136;48.822;7.966;2022-11-15T04:51:21;99748.06;;;9.72;100.00
18022;BME280;9136;48.822;7.966;2022-11-15T04:54:07;99772.09;;;9.85;100.00
18022;BME280;9136;48.822;7.966;2022-11-15T04:56:53;99780.28;;;9.99;100.00
18022;BME280;9136;48.822;7.966;2022-11-15T04:59:39;99758.34;;;9.78;100.00
18022;BME280;9136;48.822;7.966;2022-11-15T05:02:25;99760.19;;;9.51;100.00
18022;BME280;9136;48.822;7.966;2022-11-15T05:05:33;99768.44;;;9.40;100.00
18022;BME280;9136;48.822;7.966;2022-11-15T05:08:20;99798.25;;;9.38;100.00
18022;BME280;9136;48.822;7.966;2022-11-15T05:11:06;99773.78;;;9.12;100.00
18022;BME280;9136;48.822;7.966;2022-11-15T05:13:52;99773.78;;;9.12;100.00
18022;BME280;9136;48.822;7.966;2022-11-15T05:16:39;99777.31;;;9.11;100.00
18022;BME280;9136;48.822;7.966;2022-11-15T05:19:25;99799.41;;;9.29;100.00
18022;BME280;9136;48.822;7.966;2022-11-15T05:22:12;99776.25;;;9.17;100.00
18022;BME280;9136;48.822;7.966;2022-11-15T05:24:59;99774.69;;;9.11;100.00
18022;BME280;9136;48.822;7.966;2022-11-15T05:27:45;99759.31;;;9.01;100.00
18022;BME280;9136;48.822;7.966;2022-11-15T05:30:31;99777.72;;;8.99;100.00
18022;BME280;9136;48.822;7.966;2022-11-15T05:33:18;99759.81;;;8.85;100.00
18022;BME280;9136;48.822;7.966;2022-11-15T05:36:07;99777.72;;;8.99;100.00
18022;BME280;9136;48.822;7.966;2022-11-15T05:39:01;99787.66;;;9.14;100.00
18022;BME280;9136;48.822;7.966;2022-11-15T05:41:46;99784.06;;;9.18;100.00
18022;BME280;9136;48.822;7.966;2022-11-15T05:44:36;99780.41;;;9.23;100.00
18022;BME280;9136;48.822;7.966;2022-11-15T05:47:24;99760.97;;;9.03;100.00
18022;BME280;9136;48.822;7.966;2022-11-15T05:50:15;99784.84;;;9.21;100.00
18022;BME280;9136;48.822;7.966;2022-11-15T05:52:45;99757.44;;;9.04;100.00
18022;BME280;9136;48.822;7.966;2022-11-15T05:55:15;99763.59;;;9.03;100.00
18022;BME280;9136;48.822;7.966;2022-11-15T05:58:03;99742.25;;;8.89;100.00
18022;BME280;9136;48.822;7.966;2022-11-15T06:00:49;99753.53;;;8.91;100.00
18022;BME280;9136;48.822;7.966;2022-11-15T06:03:19;99758.66;;;8.94;100.00
18022;BME280;9136;48.822;7.966;2022-11-15T06:06:06;99754.59;;;8.85;100.00
18022;BME280;9136;48.822;7.966;2022-11-15T06:08:34;99777.44;;;9.07;100.00
18022;BME280;9136;48.822;7.966;2022-11-15T06:11:05;99760.50;;;8.92;100.00
18022;BME280;9136;48.822;7.966;2022-11-15T06:13:35;99785.34;;;9.05;100.00
18022;BME280;9136;48.822;7.966;2022-11-15T06:16:03;99755.34;;;8.89;100.00
18022;BME280;9136;48.822;7.966;2022-11-15T06:18:33;99776.69;;;9.03;100.00
18022;BME280;9136;48.822;7.966;2022-11-15T06:21:01;99771.47;;;9.03;100.00
18022;BME280;9136;48.822;7.966;2022-11-15T06:23:33;99746.66;;;8.88;100.00
18022;BME280;9136;48.822;7.966;2022-11-15T06:26:02;99734.72;;;8.80;100.00
18022;BME280;9136;48.822;7.966;2022-11-15T06:28:32;99752.69;;;8.91;100.00
18022;BME280;9136;48.822;7.966;2022-11-15T06:31:02;99733.13;;;8.74;100.00
18022;BME280;9136;48.822;7.966;2022-11-15T06:33:31;99739.19;;;8.76;100.00
18022;BME280;9136;48.822;7.966;2022-11-15T06:36:00;99758.84;;;8.89;100.00
18022;BME280;9136;48.822;7.966;2022-11-15T06:38:28;99734.97;;;8.72;100.00
18022;BME280;9136;48.822;7.966;2022-11-15T06:41:15;99736.00;;;8.67;100.00
18022;BME280;9136;48.822;7.966;2022-11-15T06:44:03;99746.00;;;8.82;100.00
18022;BME280;9136;48.822;7.966;2022-11-15T06:46:48;99768.94;;;9.00;100.00
18022;BME280;9136;48.822;7.966;2022-11-15T06:49:35;99728.41;;;8.85;100.00
18022;BME280;9136;48.822;7.966;2022-11-15T06:52:25;99765.97;;;9.11;100.00
18022;BME280;9136;48.822;7.966;2022-11-15T06:55:17;99732.59;;;8.91;100.00
18022;BME280;9136;48.822;7.966;2022-11-15T06:58:03;99760.56;;;9.15;100.00
18022;BME280;9136;48.822;7.966;2022-11-15T07:00:32;99749.38;;;9.10;100.00
18022;BME280;9136;48.822;7.966;2022-11-15T07:03:21;99754.09;;;9.26;100.00
18022;BME280;9136;48.822;7.966;2022-11-15T07:06:08;99761.25;;;9.21;100.00
18022;BME280;9136;48.822;7.966;2022-11-15T07:08:54;99751.22;;;9.08;100.00
18022;BME280;9136;48.822;7.966;2022-11-15T07:11:41;99762.13;;;9.21;100.00
18022;BME280;9136;48.822;7.966;2022-11-15T07:14:27;99783.94;;;9.22;100.00
18022;BME280;9136;48.822;7.966;2022-11-15T07:17:17;99775.16;;;9.23;100.00
18022;BME280;9136;48.822;7.966;2022-11-15T07:20:04;99758.66;;;9.21;100.00
18022;BME280;9136;48.822;7.966;2022-11-15T07:22:51;99725.94;;;9.07;100.00
18022;BME280;9136;48.822;7.966;2022-11-15T07:25:38;99762.59;;;9.32;100.00
18022;BME280;9136;48.822;7.966;2022-11-15T07:28:24;99740.97;;;9.26;100.00
18022;BME280;9136;48.822;7.966;2022-11-15T07:31:12;99739.19;;;9.28;100.00
18022;BME280;9136;48.822;7.966;2022-11-15T07:34:01;99747.59;;;9.37;100.00
18022;BME280;9136;48.822;7.966;2022-11-15T07:36:49;99721.38;;;9.37;100.00
18022;BME280;9136;48.822;7.966;2022-11-15T07:39:37;99744.91;;;9.62;100.00
18022;BME280;9136;48.822;7.966;2022-11-15T07:42:25;99746.34;;;9.71;100.00
18022;BME280;9136;48.822;7.966;2022-11-15T07:45:30;99749.09;;;9.68;100.00
18022;BME280;9136;48.822;7.966;2022-11-15T07:48:19;99752.97;;;9.81;100.00
18022;BME280;9136;48.822;7.966;2022-11-15T07:51:11;99748.50;;;9.85;100.00
18022;BME280;9136;48.822;7.966;2022-11-15T07:53:59;99731.88;;;9.84;100.00
18022;BME280;9136;48.822;7.966;2022-11-15T07:56:47;99751.31;;;10.02;100.00
18022;BME280;9136;48.822;7.966;2022-11-15T07:59:35;99736.38;;;9.81;100.00
18022;BME280;9136;48.822;7.966;2022-11-15T08:02:23;99725.81;;;9.82;100.00
18022;BME280;9136;48.822;7.966;2022-11-15T08:05:10;99717.72;;;9.88;100.00
18022;BME280;9136;48.822;7.966;2022-11-15T08:08:00;99720.81;;;9.99;100.00
18022;BME280;9136;48.822;7.966;2022-11-15T08:10:48;99752.38;;;10.20;100.00
18022;BME280;9136;48.822;7.966;2022-11-15T08:13:35;99740.84;;;10.25;100.00
18022;BME280;9136;48.822;7.966;2022-11-15T08:16:23;99750.13;;;10.34;100.00
18022;BME280;9136;48.822;7.966;2022-11-15T08:19:11;99741.56;;;10.29;100.00
18022;BME280;9136;48.822;7.966;2022-11-15T08:21:59;99736.31;;;10.29;100.00
18022;BME280;9136;48.822;7.966;2022-11-15T08:24:48;99719.69;;;10.28;100.00
18022;BME280;9136;48.822;7.966;2022-11-15T08:27:36;99731.78;;;10.32;100.00
18022;BME280;9136;48.822;7.966;2022-11-15T08:30:24;99723.00;;;10.34;100.00
18022;BME280;9136;48.822;7.966;2022-11-15T08:33:13;99727.22;;;10.38;100.00
18022;BME280;9136;48.822;7.966;2022-11-15T08:36:01;99734.16;;;10.39;100.00
18022;BME280;9136;48.822;7.966;2022-11-15T08:38:49;99742.66;;;10.45;100.00
18022;BME280;9136;48.822;7.966;2022-11-15T08:41:39;99725.09;;;10.25;100.00
18022;BME280;9136;48.822;7.966;2022-11-15T08:44:27;99712.50;;;10.10;100.00
18022;BME280;9136;48.822;7.966;2022-11-15T08:47:15;99744.13;;;10.30;100.00
18022;BME280;9136;48.822;7.966;2022-11-15T08:50:03;99738.56;;;10.38;100.00
18022;BME280;9136;48.822;7.966;2022-11-15T08:52:51;99718.00;;;10.27;100.00
18022;BME280;9136;48.822;7.966;2022-11-15T08:55:39;99726.00;;;10.46;100.00
18022;BME280;9136;48.822;7.966;2022-11-15T08:58:29;99732.09;;;10.47;100.00
18022;BME280;9136;48.822;7.966;2022-11-15T09:01:19;99726.84;;;10.47;100.00
18022;BME280;9136;48.822;7.966;2022-11-15T09:04:07;99723.06;;;10.54;100.00
18022;BME280;9136;48.822;7.966;2022-11-15T09:06:55;99723.72;;;10.59;100.00
18022;BME280;9136;48.822;7.966;2022-11-15T09:09:43;99727.63;;;10.71;100.00
18022;BME280;9136;48.822;7.966;2022-11-15T09:12:31;99743.44;;;10.91;100.00
18022;BME280;9136;48.822;7.966;2022-11-15T09:15:20;99720.75;;;10.88;100.00
18022;BME280;9136;48.822;7.966;2022-11-15T09:18:08;99732.78;;;10.94;100.00
18022;BME280;9136;48.822;7.966;2022-11-15T09:20:56;99705.19;;;10.84;100.00
18022;BME280;9136;48.822;7.966;2022-11-15T09:23:44;99705.66;;;10.94;100.00
18022;BME280;9136;48.822;7.966;2022-11-15T09:26:32;99732.84;;;11.13;100.00
18022;BME280;9136;48.822;7.966;2022-11-15T09:29:22;99714.06;;;11.02;100.00
18022;BME280;9136;48.822;7.966;2022-11-15T09:32:11;99716.34;;;11.09;100.00
18022;BME280;9136;48.822;7.966;2022-11-15T09:34:59;99722.13;;;11.17;100.00
18022;BME280;9136;48.822;7.966;2022-11-15T09:37:47;99730.38;;;11.30;100.00
18022;BME280;9136;48.822;7.966;2022-11-15T09:40:38;99718.25;;;11.26;100.00
18022;BME280;9136;48.822;7.966;2022-11-15T09:43:31;99733.72;;;11.34;100.00
18022;BME280;9136;48.822;7.966;2022-11-15T09:46:24;99726.22;;;11.25;100.00
18022;BME280;9136;48.822;7.966;2022-11-15T09:58:24;99721.34;;;11.15;100.00
18022;BME280;9136;48.822;7.966;2022-11-15T09:59:21;99714.59;;;11.10;100.00
18022;BME280;9136;48.822;7.966;2022-11-15T10:02:31;99720.25;;;11.01;100.00
18022;BME280;9136;48.822;7.966;2022-11-15T10:05:23;99723.44;;;11.07;100.00
18022;BME280;9136;48.822;7.966;2022-11-15T10:08:24;99723.72;;;11.22;100.00
18022;BME280;9136;48.822;7.966;2022-11-15T10:11:18;99712.94;;;11.28;100.00
18022;BME280;9136;48.822;7.966;2022-11-15T10:14:11;99733.91;;;11.50;100.00
18022;BME280;9136;48.822;7.966;2022-11-15T10:17:43;99706.22;;;11.41;100.00
18022;BME280;9136;48.822;7.966;2022-11-15T10:20:44;99723.38;;;11.50;100.00
18022;BME280;9136;48.822;7.966;2022-11-15T10:23:33;99714.19;;;11.39;100.00
18022;BME280;9136;48.822;7.966;2022-11-15T10:26:23;99692.25;;;11.20;100.00
18022;BME280;9136;48.822;7.966;2022-11-15T10:29:11;99719.22;;;11.44;100.00
18022;BME280;9136;48.822;7.966;2022-11-15T10:31:59;99701.25;;;11.54;100.00
18022;BME280;9136;48.822;7.966;2022-11-15T10:34:47;99678.03;;;11.63;100.00
18022;BME280;9136;48.822;7.966;2022-11-15T10:37:35;99673.56;;;11.84;100.00
18022;BME280;9136;48.822;7.966;2022-11-15T10:40:24;99679.75;;;12.21;100.00
18022;BME280;9136;48.822;7.966;2022-11-15T10:43:16;99658.00;;;12.35;100.00
18022;BME280;9136;48.822;7.966;2022-11-15T10:46:19;99642.75;;;12.41;100.00
18022;BME280;9136;48.822;7.966;2022-11-15T10:49:13;99640.75;;;12.64;100.00
18022;BME280;9136;48.822;7.966;2022-11-15T10:52:03;99635.19;;;12.87;100.00
18022;BME280;9136;48.822;7.966;2022-11-15T10:54:55;99615.69;;;13.07;100.00
18022;BME280;9136;48.822;7.966;2022-11-15T10:57:50;99630.41;;;13.28;100.00
18022;BME280;9136;48.822;7.966;2022-11-15T11:00:40;99608.84;;;13.53;100.00
18022;BME280;9136;48.822;7.966;2022-11-15T11:03:31;99589.75;;;13.32;100.00
18022;BME280;9136;48.822;7.966;2022-11-15T11:06:21;99589.16;;;13.43;100.00
18022;BME280;9136;48.822;7.966;2022-11-15T11:09:22;99589.78;;;13.64;100.00
18022;BME280;9136;48.822;7.966;2022-11-15T11:12:11;99605.91;;;14.05;100.00
18022;BME280;9136;48.822;7.966;2022-11-15T11:15:05;99584.31;;;13.67;100.00
18022;BME280;9136;48.822;7.966;2022-11-15T11:18:06;99602.53;;;13.56;100.00
18022;BME280;9136;48.822;7.966;2022-11-15T11:20:58;99580.69;;;13.21;100.00
18022;BME280;9136;48.822;7.966;2022-11-15T11:23:52;99577.34;;;13.17;100.00
18022;BME280;9136;48.822;7.966;2022-11-15T11:26:46;99580.91;;;13.16;100.00
18022;BME280;9136;48.822;7.966;2022-11-15T11:29:49;99585.47;;;13.30;100.00
18022;BME280;9136;48.822;7.966;2022-11-15T11:36:03;99547.91;;;13.42;100.00
18022;BME280;9136;48.822;7.966;2022-11-15T11:39:20;99565.91;;;13.50;100.00
18022;BME280;9136;48.822;7.966;2022-11-15T11:42:19;99557.31;;;13.30;100.00
18022;BME280;9136;48.822;7.966;2022-11-15T11:45:27;99550.13;;;13.16;100.00
18022;BME280;9136;48.822;7.966;2022-11-15T11:48:25;99561.22;;;13.39;100.00
18022;BME280;9136;48.822;7.966;2022-11-15T11:51:25;99543.25;;;13.30;100.00
18022;BME280;9136;48.822;7.966;2022-11-15T11:54:22;99541.91;;;13.23;100.00
18022;BME280;9136;48.822;7.966;2022-11-15T11:57:16;99545.34;;;13.07;100.00
18022;BME280;9136;48.822;7.966;2022-11-15T12:00:15;99540.69;;;13.12;100.00
18022;BME280;9136;48.822;7.966;2022-11-15T12:03:09;99545.84;;;13.47;100.00
18022;BME280;9136;48.822;7.966;2022-11-15T12:06:00;99526.22;;;14.28;100.00
18022;BME280;9136;48.822;7.966;2022-11-15T12:08:55;99527.38;;;14.97;100.00
18022;BME280;9136;48.822;7.966;2022-11-15T12:11:52;99554.50;;;15.70;100.00
18022;BME280;9136;48.822;7.966;2022-11-15T12:14:46;99524.25;;;15.74;100.00
18022;BME280;9136;48.822;7.966;2022-11-15T12:17:37;99543.66;;;15.88;100.00
18022;BME280;9136;48.822;7.966;2022-11-15T12:20:28;99516.25;;;16.01;100.00
18022;BME280;9136;48.822;7.966;2022-11-15T12:23:20;99495.28;;;16.64;100.00
18022;BME280;9136;48.822;7.966;2022-11-15T12:26:14;99491.00;;;16.48;100.00
18022;BME280;9136;48.822;7.966;2022-11-15T12:29:11;99500.38;;;16.01;100.00
18022;BME280;9136;48.822;7.966;2022-11-15T12:32:03;99517.44;;;15.70;100.00
18022;BME280;9136;48.822;7.966;2022-11-15T12:34:53;99480.00;;;15.35;100.00
18022;BME280;9136;48.822;7.966;2022-11-15T12:37:50;99488.97;;;15.60;100.00
18022;BME280;9136;48.822;7.966;2022-11-15T12:41:14;99476.91;;;15.56;100.00
18022;BME280;9136;48.822;7.966;2022-11-15T12:44:04;99467.69;;;15.76;100.00
18022;BME280;9136;48.822;7.966;2022-11-15T12:47:03;99483.06;;;15.83;100.00
18022;BME280;9136;48.822;7.966;2022-11-15T12:49:51;99455.66;;;15.43;100.00
18022;BME280;9136;48.822;7.966;2022-11-15T13:02:19;99440.22;;;15.64;100.00
18022;BME280;9136;48.822;7.966;2022-11-15T13:05:52;99442.97;;;15.48;100.00
18022;BME280;9136;48.822;7.966;2022-11-15T13:08:47;99419.28;;;15.05;100.00
18022;BME280;9136;48.822;7.966;2022-11-15T13:11:59;99404.50;;;14.74;100.00
18022;BME280;9136;48.822;7.966;2022-11-15T13:14:50;99398.94;;;14.65;100.00
18022;BME280;9136;48.822;7.966;2022-11-15T13:17:42;99426.59;;;14.87;100.00
18022;BME280;9136;48.822;7.966;2022-11-15T13:20:31;99409.94;;;15.00;100.00
18022;BME280;9136;48.822;7.966;2022-11-15T13:23:21;99402.56;;;15.05;100.00
18022;BME280;9136;48.822;7.966;2022-11-15T13:26:14;99390.03;;;14.94;100.00
18022;BME280;9136;48.822;7.966;2022-11-15T13:29:03;99388.75;;;14.87;100.00
18022;BME280;9136;48.822;7.966;2022-11-15T13:31:51;99408.84;;;14.89;100.00
18022;BME280;9136;48.822;7.966;2022-11-15T13:34:43;99378.53;;;14.67;100.00
18022;BME280;9136;48.822;7.966;2022-11-15T13:37:33;99385.72;;;14.65;100.00
18022;BME280;9136;48.822;7.966;2022-11-15T13:40:25;99372.44;;;14.52;100.00
18022;BME280;9136;48.822;7.966;2022-11-15T13:43:27;99371.66;;;14.36;100.00
18022;BME280;9136;48.822;7.966;2022-11-15T13:46:33;99347.69;;;14.24;100.00
18022;BME280;9136;48.822;7.966;2022-11-15T13:49:29;99363.75;;;14.21;100.00
18022;BME280;9136;48.822;7.966;2022-11-15T13:52:19;99339.84;;;13.94;100.00
18022;BME280;9136;48.822;7.966;2022-11-15T13:55:12;99368.81;;;13.96;100.00
18022;BME280;9136;48.822;7.966;2022-11-15T13:58:02;99348.03;;;13.75;100.00
18022;BME280;9136;48.822;7.966;2022-11-15T14:00:59;99342.50;;;13.80;100.00
18022;BME280;9136;48.822;7.966;2022-11-15T14:03:52;99335.41;;;13.81;100.00
18022;BME280;9136;48.822;7.966;2022-11-15T14:06:45;99336.34;;;13.80;100.00
18022;BME280;9136;48.822;7.966;2022-11-15T14:09:37;99328.59;;;13.77;100.00
18022;BME280;9136;48.822;7.966;2022-11-15T14:12:31;99322.09;;;13.68;100.00
18022;BME280;9136;48.822;7.966;2022-11-15T14:15:28;99315.75;;;13.56;100.00
18022;BME280;9136;48.822;7.966;2022-11-15T14:18:39;99300.06;;;13.39;100.00
18022;BME280;9136;48.822;7.966;2022-11-15T14:21:28;99313.66;;;13.47;100.00
18022;BME280;9136;48.822;7.966;2022-11-15T14:24:16;99313.00;;;13.43;100.00
18022;BME280;9136;48.822;7.966;2022-11-15T14:27:21;99305.44;;;13.37;100.00
18022;BME280;9136;48.822;7.966;2022-11-15T14:30:13;99308.34;;;13.33;100.00
18022;BME280;9136;48.822;7.966;2022-11-15T14:33:01;99291.44;;;13.21;100.00
18022;BME280;9136;48.822;7.966;2022-11-15T14:36:04;99289.41;;;13.10;100.00
18022;BME280;9136;48.822;7.966;2022-11-15T14:38:53;99303.72;;;13.06;100.00
18022;BME280;9136;48.822;7.966;2022-11-15T14:41:41;99288.06;;;13.03;100.00
18022;BME280;9136;48.822;7.966;2022-11-15T14:44:30;99276.69;;;12.87;100.00
18022;BME280;9136;48.822;7.966;2022-11-15T14:47:18;99273.13;;;12.88;100.00
18022;BME280;9136;48.822;7.966;2022-11-15T14:50:10;99268.88;;;12.85;100.00
18022;BME280;9136;48.822;7.966;2022-11-15T14:52:58;99256.91;;;12.80;100.00
18022;BME280;9136;48.822;7.966;2022-11-15T14:55:46;99267.72;;;12.75;100.00
18022;BME280;9136;48.822;7.966;2022-11-15T14:58:34;99270.59;;;12.71;100.00
18022;BME280;9136;48.822;7.966;2022-11-15T15:01:24;99237.66;;;12.48;100.00
18022;BME280;9136;48.822;7.966;2022-11-15T15:04:12;99245.78;;;12.43;100.00
18022;BME280;9136;48.822;7.966;2022-11-15T15:07:00;99250.22;;;12.43;100.00
18022;BME280;9136;48.822;7.966;2022-11-15T15:09:48;99269.25;;;12.48;100.00
18022;BME280;9136;48.822;7.966;2022-11-15T15:12:35;99244.38;;;12.38;100.00
18022;BME280;9136;48.822;7.966;2022-11-15T15:15:25;99234.06;;;12.33;100.00
18022;BME280;9136;48.822;7.966;2022-11-15T15:18:15;99236.97;;;12.28;100.00
18022;BME280;9136;48.822;7.966;2022-11-15T15:21:20;99224.56;;;12.15;100.00
18022;BME280;9136;48.822;7.966;2022-11-15T15:24:08;99207.75;;;12.01;100.00